AirNav   Everest Fuels
 
 972 users online  

00PN Ferrell Field Airport
Mercer, Pennsylvania, USA

GOING TO MERCER?


FAA INFORMATION EFFECTIVE 07 NOVEMBER 2019

Location

FAA Identifier: 00PN
Lat/Long: 41-17-58.2000N 080-12-40.0000W
41-17.970000N 080-12.666667W
41.2995000,-80.2111111
(estimated)
Elevation: 1301 ft. / 397 m (estimated)
From city: 6 miles N of MERCER, PA
Time zone: UTC -5 (UTC -4 during Daylight Saving Time)
Zip code: 16124

Airport Operations

Airport use: Private use. Permission required prior to landing
Activation date: 11/2008
Control tower: no
ARTCC: CLEVELAND CENTER
FSS: ALTOONA FLIGHT SERVICE STATION
Attendance: UNATNDD
Wind indicator: yes
Segmented circle: no

Airport Communications

WX AWOS-3PT at FKL (16 nm E): 118.175 ((814) 437-2066)
WX AWOS-3PT at UCP (19 nm SW): 124.175 ((724) 652-4184)
WX ASOS at GKJ (20 nm N): 121.425 (814-337-2590)

Nearby radio navigation aids

VOR radial/distance  VOR name  Freq  Var
FKLr248/(18.0)FRANKLIN VOR109.6006W
YNGr100/21.0YOUNGSTOWN VORTAC109.0005W
EWCr008/28.5ELLWOOD CITY VOR/DME115.8008W
CIPr291/35.2CLARION VOR/DME112.9006W
JFNr144/36.7JEFFERSON VOR/DME115.2005W

 
NDB name  Hdg/Dist  Freq  Var  ID
CASTLE038/19.027209WUCP ..- -.-. .--.

Airport Services

Runway Information

Runway 12/30

Dimensions: 500 x 75 ft. / 152 x 23 m
Surface: turf
RUNWAY 12  RUNWAY 30
Traffic pattern: rightleft

Airport Ownership and Management from official FAA records

Ownership: Privately-owned
Owner: JAMES DALE FERRELL
753 AIRPORT ROAD
MERCER, PA 16137
Phone 724-475-2370
Manager: JAMES DALE FERRELL
753 AIRPORT ROAD
MERCER, PA 16137
Phone 724-475-2370

Additional Remarks

ALL TRAFFIC REMAIN SOUTH OF RY 30.
FOR CD CTC YOUNGSTOWN APCH AT 330-856-4806, WHEN APCH CLSD CTC CLEVELAND ARTCC AT 440-774-0490.

Instrument Procedures

There are no published instrument procedures at 00PN.

Some nearby airports with instrument procedures:

29D - Grove City Airport (9 nm S)
4G1 - Greenville Municipal Airport (12 nm NW)
KFKL - Venango Regional Airport (16 nm E)
KUCP - New Castle Municipal Airport (19 nm SW)
KGKJ - Port Meadville Airport (20 nm N)
 
Loc | Ops | Rwys | IFR | FBO | Links
Com | Nav | Svcs | Stats | Notes
Aerial photo
No photo
 
Sectional chart

 
Airport distance calculator
Flying to Ferrell Field Airport? Find the distance to fly.

From to 00PN

Sunrise and sunset
Times for 16-Nov-2019
 Local
(UTC-5)
 Zulu
(UTC)
Morning civil twilight06:4211:42
Sunrise07:1112:11
Sunset17:0022:00
Evening civil twilight17:3022:30

Current date and time
Zulu (UTC)  16-Nov-2019 21:12:33
Local (UTC-5)  16-Nov-2019 16:12:33
 
METAR
KFKL 
16nm E 
162056Z AUTO 05008KT 10SM CLR 02/M13 A3031 RMK AO2 SLP280 T00221128 56010 FZRANO
KUCP 
19nm SW 
162056Z AUTO 06006KT 10SM CLR 05/M09 A3031 RMK AO2 SLP290 T00501094 55011
KGKJ 
20nm N 
162053Z AUTO 06006KT 10SM CLR 01/M12 A3031 RMK AO2 SLP278 T00111122 56013 TSNO
KYNG 
21nm W 
162051Z 05003KT 10SM SCT210 04/M09 A3030 RMK AO2 SLP272 T00391089 56013
KPJC 
30nm S 
162055Z AUTO 05006KT 10SM CLR 05/M12 A3030 RMK AO2
TAF
KFKL 
16nm E 
161720Z 1618/1718 09008KT P6SM SKC FM170700 11008KT P6SM SCT250 FM171600 14009KT P6SM SKC
NOTAMs
Click for the latest NOTAMs
NOTAMs are issued by the DoD/FAA and will open in a separate window not controlled by AirNav.

 

 
 

Would you like to see your business listed on this page?

 If your business provides an interesting product or service to pilots, flight crews, aircraft, or users of the Ferrell Field Airport, you should consider listing it here.  To start the listing process, click on the button below
 
Add a business
 

Other Pages about Ferrell Field Airport

Update a link
 
Copyright © AirNav, LLC. All rights reserved. Privacy Policy  Contact